« Back
NWS Peachtree City, Ga » Text Product » CSG Terminal Aerodrome Forecast


Printer-friendly Version
Current Version              Previous Versions:   1  2  3  4  5  6  7  8  9  

Terminal Aerodrome Forecast

468
FTUS42 KFFC 221100
TAFCSG
TAF
KCSG 221129Z 2212/2312 00000KT P6SM SCT050 BKN120
     FM221600 26008KT P6SM VCSH BKN050CB
     FM222000 26008KT P6SM VCTS OVC045CB
     FM230000 27007KT P6SM BKN025
     FM230200 28007KT P6SM SCT025
     FM230500 32007KT P6SM FEW030=

USA.gov is the U.S. government's official web portal to all federal, state and local government web resources and services.